Terminal Aerodrome Forecast
Issued by NWS

Home | Current Version | Previous Version | Text Only | Print | Product List | Glossary On
Versions: 1 2 3 4 5 6 7 8 9 10 11 12 13 14
000
FTPA31 PHFO 211735
TAFHLI
TAF
PHLI 211735Z 2118/2218 05015KT P6SM VCSH SCT025 BKN045
      TEMPO 2117/2120 -SHRA BKN020 OVC040
     FM220600 05012KT P6SM FEW025 SCT045
     FM221200 05009KT P6SM VCSH SCT025 BKN045=

USA.gov is the U.S. government's official web portal to all federal, state and local government web resources and services.